Alban, Wisconsin
Current Conditions -  °F | °C
As of 8:15 AM on Wednesday 28 Jan 2015 (Local Time) from KSTE Reporting Station
Overcast Overcast  
Wind Chill: 13°   Ceiling: 1200
Heat Index: 23°   Visibility: 10mi
Dew Point: 19°   Wind: 9mph
Humidity: 86%   Direction: 150°SSE
Pressure: 30.15"   Gusts: NA
Location:  44.6794°N, 89.3392°W
Report Text: KSTE 281415Z AUTO 15008KT 10SM OVC012 M05/M07 A3015 RMK AO2 T10511071
Loading
Personal Weather Stations






























Interactive Weather Map New forecast layout! Learn more

10-Day Weather Forecast

Advertisements
Track Severe Weather on mobile